createdAt,value
2018-05-17T00:00:39.303Z,16.80
2018-05-17T00:03:06.547Z,16.80
2018-05-17T00:05:33.552Z,16.80
2018-05-17T00:08:00.831Z,16.90
2018-05-17T00:10:27.780Z,16.90
2018-05-17T00:12:54.651Z,16.90
2018-05-17T00:15:21.513Z,16.90
2018-05-17T00:17:48.375Z,17.00
2018-05-17T00:20:15.259Z,17.20
2018-05-17T00:22:42.114Z,17.20
2018-05-17T00:25:09.040Z,17.30
2018-05-17T00:27:35.908Z,17.20
2018-05-17T00:30:02.809Z,17.10
2018-05-17T00:32:29.712Z,17.00
2018-05-17T00:34:56.558Z,16.80
2018-05-17T00:37:23.430Z,16.90
2018-05-17T00:39:50.300Z,16.90
2018-05-17T00:42:17.149Z,16.90
2018-05-17T00:44:44.019Z,17.00
2018-05-17T00:47:10.874Z,17.10
2018-05-17T00:49:37.816Z,17.00
2018-05-17T00:52:04.700Z,17.00
2018-05-17T00:54:31.568Z,16.90
2018-05-17T00:56:58.428Z,16.60
2018-05-17T00:59:25.343Z,16.50
2018-05-17T01:01:52.397Z,16.40
2018-05-17T01:04:19.191Z,16.30
2018-05-17T01:06:46.034Z,16.40
2018-05-17T01:09:12.974Z,16.50
2018-05-17T01:11:39.934Z,16.30
2018-05-17T01:14:06.905Z,16.00
2018-05-17T01:16:33.784Z,15.90
2018-05-17T01:19:00.659Z,15.90
2018-05-17T01:21:27.601Z,15.80
2018-05-17T01:23:54.546Z,15.60
2018-05-17T01:26:21.401Z,15.80
2018-05-17T01:28:48.284Z,15.80
2018-05-17T01:31:15.175Z,15.90
2018-05-17T01:33:42.065Z,15.80
2018-05-17T01:36:09.031Z,15.70
2018-05-17T01:38:35.979Z,15.70
2018-05-17T01:41:02.855Z,15.60
2018-05-17T01:43:29.743Z,15.80
2018-05-17T01:45:56.579Z,15.90
2018-05-17T01:48:23.532Z,15.60
2018-05-17T01:50:50.400Z,15.40
2018-05-17T01:53:17.342Z,15.30
2018-05-17T01:55:44.295Z,15.30
2018-05-17T01:58:11.162Z,15.20
2018-05-17T02:00:38.093Z,15.20
2018-05-17T02:03:04.956Z,15.30
2018-05-17T02:05:31.857Z,15.30
2018-05-17T02:07:58.714Z,15.30
2018-05-17T02:10:25.579Z,15.50
2018-05-17T02:12:52.903Z,15.40
2018-05-17T02:15:19.767Z,15.40
2018-05-17T02:17:46.713Z,15.10
2018-05-17T02:20:13.554Z,15.10
2018-05-17T02:22:40.416Z,15.00
2018-05-17T02:25:07.287Z,15.00
2018-05-17T02:27:34.168Z,15.00
2018-05-17T02:30:01.121Z,14.70
2018-05-17T02:32:28.410Z,14.80
2018-05-17T02:34:55.284Z,14.70
2018-05-17T02:37:22.155Z,14.70
2018-05-17T02:39:49.410Z,14.80
2018-05-17T02:42:16.731Z,14.80
2018-05-17T02:44:43.677Z,14.80
2018-05-17T02:47:10.533Z,14.80
2018-05-17T02:49:37.398Z,14.90
2018-05-17T02:52:04.265Z,14.90
2018-05-17T02:54:31.225Z,14.90
2018-05-17T02:56:58.098Z,14.60
2018-05-17T02:59:24.957Z,14.60
2018-05-17T03:01:51.887Z,14.80
2018-05-17T03:04:18.839Z,14.90
2018-05-17T03:06:45.711Z,14.80
2018-05-17T03:09:12.655Z,14.60
2018-05-17T03:11:39.529Z,14.50
2018-05-17T03:14:06.384Z,14.40
2018-05-17T03:16:33.260Z,14.10
2018-05-17T03:19:00.200Z,14.20
2018-05-17T03:21:27.043Z,14.20
2018-05-17T03:23:54.406Z,14.20
2018-05-17T03:26:21.288Z,14.10
2018-05-17T03:28:48.176Z,14.00
2018-05-17T03:31:15.029Z,13.90
2018-05-17T03:33:41.938Z,13.90
2018-05-17T03:36:08.813Z,13.90
2018-05-17T03:38:35.757Z,14.10
2018-05-17T03:41:02.632Z,14.10
2018-05-17T03:43:29.631Z,14.20
2018-05-17T03:45:56.498Z,14.00
2018-05-17T03:48:23.834Z,13.90
2018-05-17T03:50:50.761Z,13.90
2018-05-17T03:53:17.619Z,14.00
2018-05-17T03:55:44.519Z,14.10
2018-05-17T03:58:11.375Z,14.10
2018-05-17T04:00:50.198Z,14.10
2018-05-17T04:03:29.080Z,14.30
2018-05-17T04:06:08.389Z,14.40
2018-05-17T04:08:35.370Z,14.40
2018-05-17T04:11:02.205Z,14.00
2018-05-17T04:13:29.159Z,14.00
2018-05-17T04:15:56.098Z,13.80
2018-05-17T04:18:23.060Z,13.70
2018-05-17T04:20:50.032Z,13.80
2018-05-17T04:23:16.963Z,13.80
2018-05-17T04:25:44.250Z,14.10
2018-05-17T04:28:11.110Z,14.10
2018-05-17T04:30:37.987Z,14.10
2018-05-17T04:33:04.841Z,14.20
2018-05-17T04:35:31.792Z,13.90
2018-05-17T04:37:58.760Z,13.60
2018-05-17T04:40:25.627Z,13.40
2018-05-17T04:42:52.646Z,13.20
2018-05-17T04:45:19.508Z,13.20
2018-05-17T04:47:46.353Z,13.20
2018-05-17T04:50:13.329Z,13.20
2018-05-17T04:52:40.204Z,13.10
2018-05-17T04:55:07.066Z,13.10
2018-05-17T04:57:34.101Z,13.40
2018-05-17T05:00:00.967Z,13.60
2018-05-17T05:02:28.019Z,13.50
2018-05-17T05:04:54.963Z,13.40
2018-05-17T05:07:21.850Z,13.00
2018-05-17T05:09:48.810Z,13.00
2018-05-17T05:12:15.726Z,13.00
2018-05-17T05:14:42.614Z,12.90
2018-05-17T05:17:09.528Z,13.00
2018-05-17T05:19:36.831Z,13.20
2018-05-17T05:22:03.804Z,13.20
2018-05-17T05:24:30.693Z,13.10
2018-05-17T05:26:57.541Z,12.80
2018-05-17T05:29:24.494Z,12.60
2018-05-17T05:31:51.338Z,12.60
2018-05-17T05:34:18.201Z,12.60
2018-05-17T05:36:45.051Z,12.80
2018-05-17T05:39:12.054Z,13.10
2018-05-17T05:41:39.382Z,13.40
2018-05-17T05:44:06.263Z,13.40
2018-05-17T05:46:33.187Z,13.20
2018-05-17T05:49:00.075Z,13.10
2018-05-17T05:51:27.013Z,13.10
2018-05-17T05:53:53.886Z,13.20
2018-05-17T05:56:20.932Z,13.30
2018-05-17T05:58:47.774Z,13.40
2018-05-17T06:01:14.635Z,13.50
2018-05-17T06:03:41.579Z,13.00
2018-05-17T06:06:08.544Z,12.60
2018-05-17T06:08:35.428Z,12.70
2018-05-17T06:11:02.338Z,12.60
2018-05-17T06:13:29.591Z,12.60
2018-05-17T06:15:56.894Z,12.50
2018-05-17T06:18:23.794Z,12.50
2018-05-17T06:20:50.656Z,12.60
2018-05-17T06:23:17.514Z,12.50
2018-05-17T06:25:44.422Z,12.80
2018-05-17T06:28:11.282Z,12.90
2018-05-17T06:30:38.134Z,13.00
2018-05-17T06:33:05.010Z,12.90
2018-05-17T06:35:31.969Z,12.80
2018-05-17T06:37:58.934Z,12.80
2018-05-17T06:40:25.789Z,12.60
2018-05-17T06:42:52.662Z,12.80
2018-05-17T06:45:19.599Z,12.80
2018-05-17T06:47:46.472Z,12.70
2018-05-17T06:50:13.323Z,12.50
2018-05-17T06:52:40.199Z,12.50
2018-05-17T06:55:07.132Z,12.50
2018-05-17T06:57:34.074Z,12.40
2018-05-17T07:00:01.063Z,12.50
2018-05-17T07:02:28.003Z,12.70
2018-05-17T07:04:54.799Z,13.10
2018-05-17T07:07:21.721Z,13.60
2018-05-17T07:09:48.599Z,13.80
2018-05-17T07:12:15.527Z,14.00
2018-05-17T07:14:42.498Z,13.90
2018-05-17T07:17:09.352Z,13.60
2018-05-17T07:19:36.222Z,13.40
2018-05-17T07:22:03.065Z,13.30
2018-05-17T07:24:29.970Z,13.40
2018-05-17T07:26:56.816Z,13.10
2018-05-17T07:29:23.726Z,13.00
2018-05-17T07:31:50.590Z,13.10
2018-05-17T07:34:17.459Z,13.20
2018-05-17T07:36:44.409Z,13.50
2018-05-17T07:39:11.295Z,14.00
2018-05-17T07:41:38.118Z,14.30
2018-05-17T07:44:04.964Z,14.20
2018-05-17T07:46:31.853Z,14.30
2018-05-17T07:48:58.757Z,14.40
2018-05-17T07:51:26.110Z,14.80
2018-05-17T07:53:53.027Z,14.80
2018-05-17T07:56:19.884Z,14.50
2018-05-17T07:58:46.839Z,14.50
2018-05-17T08:01:13.793Z,14.50
2018-05-17T08:03:40.658Z,14.70
2018-05-17T08:06:07.651Z,14.90
2018-05-17T08:08:34.515Z,14.90
2018-05-17T08:11:01.395Z,14.70
2018-05-17T08:13:28.681Z,14.70
2018-05-17T08:15:56.002Z,14.90
2018-05-17T08:18:22.919Z,14.90
2018-05-17T08:20:49.772Z,15.10
2018-05-17T08:23:16.624Z,15.10
2018-05-17T08:25:43.580Z,15.20
2018-05-17T08:28:10.451Z,15.40
2018-05-17T08:30:37.494Z,15.50
2018-05-17T08:33:04.369Z,15.70
2018-05-17T08:35:31.271Z,15.80
2018-05-17T08:37:58.202Z,15.90
2018-05-17T08:40:25.144Z,16.00
2018-05-17T08:42:52.195Z,16.00
2018-05-17T08:45:19.052Z,16.00
2018-05-17T08:47:45.919Z,15.80
2018-05-17T08:50:12.881Z,15.70
2018-05-17T08:52:39.735Z,15.60
2018-05-17T08:55:06.582Z,15.70
2018-05-17T08:57:33.474Z,15.90
2018-05-17T09:00:00.409Z,15.40
2018-05-17T09:02:27.365Z,15.50
2018-05-17T09:04:54.413Z,15.80
2018-05-17T09:07:21.285Z,15.90
2018-05-17T09:09:48.259Z,15.80
2018-05-17T09:12:15.196Z,15.80
2018-05-17T09:14:42.084Z,15.70
2018-05-17T09:17:08.937Z,15.50
2018-05-17T09:19:35.931Z,15.50
2018-05-17T09:22:03.197Z,15.80
2018-05-17T09:24:30.349Z,15.80
2018-05-17T09:26:57.285Z,15.90
2018-05-17T09:29:24.233Z,16.20
2018-05-17T09:31:51.176Z,16.40
2018-05-17T09:34:18.036Z,16.20
2018-05-17T09:36:44.897Z,16.20
2018-05-17T09:39:11.769Z,16.00
2018-05-17T09:41:38.710Z,16.40
2018-05-17T09:44:05.606Z,16.40
2018-05-17T09:46:32.537Z,16.50
2018-05-17T09:48:59.494Z,16.90
2018-05-17T09:51:26.351Z,17.20
2018-05-17T09:53:53.211Z,17.30
2018-05-17T09:56:20.157Z,17.60
2018-05-17T09:58:47.023Z,17.50
2018-05-17T10:01:13.919Z,17.70
2018-05-17T10:03:40.812Z,17.70
2018-05-17T10:06:07.677Z,17.70
2018-05-17T10:08:34.603Z,17.90
2018-05-17T10:11:01.476Z,17.80
2018-05-17T10:13:28.781Z,17.30
2018-05-17T10:15:55.664Z,17.30
2018-05-17T10:18:22.513Z,17.50
2018-05-17T10:20:49.534Z,17.70
2018-05-17T10:23:16.761Z,18.20
2018-05-17T10:25:43.635Z,18.20
2018-05-17T10:28:10.933Z,17.90
2018-05-17T10:30:37.791Z,17.90
2018-05-17T10:33:04.734Z,17.50
2018-05-17T10:35:31.639Z,17.50
2018-05-17T10:37:58.581Z,17.80
2018-05-17T10:40:25.426Z,17.20
2018-05-17T10:42:52.307Z,17.10
2018-05-17T10:45:19.176Z,17.00
2018-05-17T10:47:46.097Z,17.00
2018-05-17T10:50:13.045Z,16.60
2018-05-17T10:52:40.286Z,16.60
2018-05-17T10:55:07.580Z,16.90
2018-05-17T10:57:34.423Z,16.80
2018-05-17T11:00:01.440Z,16.70
2018-05-17T11:02:28.407Z,16.80
2018-05-17T11:04:55.219Z,16.80
2018-05-17T11:07:22.096Z,16.90
2018-05-17T11:09:49.053Z,17.20
2018-05-17T11:12:15.983Z,17.50
2018-05-17T11:14:42.874Z,17.80
2018-05-17T11:17:09.756Z,17.50
2018-05-17T11:19:36.614Z,17.40
2018-05-17T11:22:03.505Z,17.00
2018-05-17T11:24:30.793Z,17.30
2018-05-17T11:26:57.664Z,17.30
2018-05-17T11:29:24.565Z,17.30
2018-05-17T11:31:51.493Z,17.40
2018-05-17T11:34:18.354Z,16.90
2018-05-17T11:36:45.286Z,17.10
2018-05-17T11:39:12.179Z,17.30
2018-05-17T11:41:39.072Z,17.40
2018-05-17T11:44:06.061Z,17.50
2018-05-17T11:46:32.961Z,17.10
2018-05-17T11:48:59.828Z,17.20
2018-05-17T11:51:27.150Z,17.40
2018-05-17T11:53:54.032Z,17.40
2018-05-17T11:56:20.978Z,17.30
2018-05-17T11:58:47.860Z,17.40
2018-05-17T12:01:14.843Z,17.40
2018-05-17T12:03:42.117Z,17.60
2018-05-17T12:06:08.987Z,17.60
2018-05-17T12:08:35.994Z,17.30
2018-05-17T12:11:02.982Z,17.50
2018-05-17T12:13:30.053Z,18.00
2018-05-17T12:15:57.350Z,17.50
2018-05-17T12:18:24.193Z,17.50
2018-05-17T12:20:51.163Z,17.40
2018-05-17T12:23:18.052Z,17.70
2018-05-17T12:25:45.018Z,17.60
2018-05-17T12:28:11.988Z,17.40
2018-05-17T12:30:38.864Z,17.50
2018-05-17T12:33:06.135Z,17.90
2018-05-17T12:35:33.417Z,17.80
2018-05-17T12:38:00.741Z,17.90
2018-05-17T12:40:27.660Z,17.90
2018-05-17T12:42:54.604Z,18.10
2018-05-17T12:45:21.849Z,18.50
2018-05-17T12:47:49.092Z,18.50
2018-05-17T12:50:16.009Z,18.50
2018-05-17T12:52:42.890Z,18.20
2018-05-17T12:55:09.818Z,18.20
2018-05-17T12:57:36.804Z,18.30
2018-05-17T13:00:03.685Z,18.40
2018-05-17T13:02:30.561Z,18.40
2018-05-17T13:04:57.881Z,18.50
2018-05-17T13:07:24.711Z,18.60
2018-05-17T13:09:51.596Z,18.40
2018-05-17T13:12:18.444Z,18.30
2018-05-17T13:14:45.339Z,18.50
2018-05-17T13:17:12.263Z,18.50
2018-05-17T13:19:39.216Z,18.60
2018-05-17T13:22:06.071Z,18.90
2018-05-17T13:24:33.029Z,18.80
2018-05-17T13:26:59.898Z,18.50
2018-05-17T13:29:26.834Z,18.60
2018-05-17T13:31:54.069Z,18.40
2018-05-17T13:34:21.390Z,18.20
2018-05-17T13:36:48.379Z,18.20
2018-05-17T13:39:15.690Z,18.30
2018-05-17T13:41:42.983Z,18.40
2018-05-17T13:44:09.946Z,18.40
2018-05-17T13:46:36.824Z,18.40
2018-05-17T13:49:03.811Z,18.50
2018-05-17T13:51:31.111Z,18.20
2018-05-17T13:53:58.032Z,18.10
2018-05-17T13:56:25.306Z,18.60
2018-05-17T13:58:52.618Z,18.90
2018-05-17T14:01:19.490Z,18.90
2018-05-17T14:03:46.427Z,19.00
2018-05-17T14:06:13.288Z,19.20
2018-05-17T14:08:40.197Z,19.30
2018-05-17T14:11:07.517Z,19.30
2018-05-17T14:13:34.495Z,19.30
2018-05-17T14:16:01.459Z,19.30
2018-05-17T14:18:28.322Z,19.30
2018-05-17T14:20:55.239Z,18.80
2018-05-17T14:23:22.113Z,18.70
2018-05-17T14:25:49.063Z,19.00
2018-05-17T14:28:15.922Z,19.30
2018-05-17T14:30:42.807Z,19.50
2018-05-17T14:33:09.651Z,19.80
2018-05-17T14:35:36.588Z,20.00
2018-05-17T14:38:03.622Z,19.90
2018-05-17T14:40:31.112Z,20.30
2018-05-17T14:42:57.980Z,20.30
2018-05-17T14:45:24.953Z,20.30
2018-05-17T14:47:51.804Z,20.40
2018-05-17T14:50:18.674Z,20.60
2018-05-17T14:52:45.619Z,20.60
2018-05-17T14:55:12.533Z,20.30
2018-05-17T14:57:39.433Z,20.20
2018-05-17T15:00:06.380Z,20.20
2018-05-17T15:02:33.340Z,20.10
2018-05-17T15:05:00.295Z,19.90
2018-05-17T15:07:27.250Z,19.80
2018-05-17T15:09:54.531Z,20.30
2018-05-17T15:12:21.403Z,20.30
2018-05-17T15:14:48.374Z,20.40
2018-05-17T15:17:15.243Z,20.50
2018-05-17T15:19:42.103Z,20.60
2018-05-17T15:22:09.038Z,20.60
2018-05-17T15:24:36.010Z,20.50
2018-05-17T15:27:02.855Z,20.20
2018-05-17T15:29:29.762Z,20.20
2018-05-17T15:31:57.012Z,20.40
2018-05-17T15:34:24.019Z,20.50
2018-05-17T15:36:50.901Z,20.30
2018-05-17T15:39:17.739Z,20.40
2018-05-17T15:41:44.718Z,20.60
2018-05-17T15:44:11.566Z,20.60
2018-05-17T15:46:38.511Z,20.70
2018-05-17T15:49:05.377Z,20.80
2018-05-17T15:51:32.400Z,21.00
2018-05-17T15:53:59.303Z,20.90
2018-05-17T15:56:26.351Z,20.60
2018-05-17T15:58:53.231Z,20.40
2018-05-17T16:01:20.077Z,20.40
2018-05-17T16:03:47.017Z,20.50
2018-05-17T16:06:14.000Z,20.70
2018-05-17T16:08:40.888Z,20.80
2018-05-17T16:11:07.747Z,20.50
2018-05-17T16:13:34.642Z,20.30
2018-05-17T16:16:01.525Z,20.30
2018-05-17T16:18:28.575Z,20.60
2018-05-17T16:20:55.465Z,20.70
2018-05-17T16:23:22.328Z,20.80
2018-05-17T16:25:49.266Z,21.30
2018-05-17T16:28:16.194Z,22.00
2018-05-17T16:30:43.032Z,23.20
2018-05-17T16:33:09.899Z,23.80
2018-05-17T16:35:37.186Z,23.20
2018-05-17T16:38:04.129Z,23.20
2018-05-17T16:40:31.186Z,23.10
2018-05-17T16:42:58.167Z,23.50
2018-05-17T16:45:25.310Z,24.10
2018-05-17T16:47:52.206Z,23.30
2018-05-17T16:50:19.134Z,22.70
2018-05-17T16:52:46.070Z,22.60
2018-05-17T16:55:12.885Z,22.80
2018-05-17T16:57:39.811Z,23.20
2018-05-17T17:00:06.668Z,23.90
2018-05-17T17:02:33.612Z,24.30
2018-05-17T17:05:00.878Z,24.00
2018-05-17T17:07:27.701Z,24.00
2018-05-17T17:09:55.023Z,24.40
2018-05-17T17:12:21.870Z,24.50
2018-05-17T17:14:48.941Z,24.00
2018-05-17T17:17:15.891Z,23.80
2018-05-17T17:19:42.769Z,24.00
2018-05-17T17:22:09.706Z,24.50
2018-05-17T17:24:36.592Z,24.90
2018-05-17T17:27:03.476Z,24.70
2018-05-17T17:29:30.371Z,24.40
2018-05-17T17:31:57.249Z,23.40
2018-05-17T17:34:24.243Z,22.70
2018-05-17T17:36:51.473Z,22.10
2018-05-17T17:39:18.326Z,21.90
2018-05-17T17:41:45.202Z,22.40
2018-05-17T17:44:12.088Z,22.60
2018-05-17T17:46:39.008Z,23.00
2018-05-17T17:49:05.888Z,22.40
2018-05-17T17:51:32.799Z,22.20
2018-05-17T17:53:59.773Z,22.60
2018-05-17T17:56:26.733Z,23.00
2018-05-17T17:58:53.587Z,23.00
2018-05-17T18:01:20.546Z,22.80
2018-05-17T18:03:47.516Z,22.60
2018-05-17T18:06:14.467Z,22.40
2018-05-17T18:08:42.270Z,21.90
2018-05-17T18:11:09.151Z,21.20
2018-05-17T18:13:36.018Z,20.90
2018-05-17T18:16:03.286Z,19.60
2018-05-17T18:18:30.547Z,19.60
2018-05-17T18:20:57.825Z,19.50
2018-05-17T18:23:25.244Z,19.60
2018-05-17T18:25:52.097Z,19.50
2018-05-17T18:28:19.035Z,19.60
2018-05-17T18:30:45.943Z,19.60
2018-05-17T18:33:12.807Z,19.40
2018-05-17T18:35:39.724Z,19.10
2018-05-17T18:38:06.601Z,18.90
2018-05-17T18:40:33.540Z,18.50
2018-05-17T18:43:00.514Z,18.60
2018-05-17T18:45:27.383Z,18.60
2018-05-17T18:47:54.267Z,18.60
2018-05-17T18:50:21.557Z,18.50
2018-05-17T18:52:48.416Z,18.50
2018-05-17T18:55:15.312Z,18.50
2018-05-17T18:57:42.258Z,18.30
2018-05-17T19:00:09.269Z,18.30
2018-05-17T19:02:36.214Z,18.20
2018-05-17T19:05:03.407Z,18.10
2018-05-17T19:07:30.778Z,18.00
2018-05-17T19:09:58.015Z,17.80
2018-05-17T19:12:24.933Z,17.80
2018-05-17T19:14:51.843Z,17.70
2018-05-17T19:17:18.675Z,17.60
2018-05-17T19:19:45.554Z,17.70
2018-05-17T19:22:12.882Z,17.80
2018-05-17T19:24:39.870Z,17.80
2018-05-17T19:27:06.751Z,17.80
2018-05-17T19:29:33.707Z,17.80
2018-05-17T19:32:01.046Z,17.80
2018-05-17T19:34:27.935Z,17.80
2018-05-17T19:36:55.260Z,17.60
2018-05-17T19:39:22.103Z,17.60
2018-05-17T19:41:49.123Z,17.50
2018-05-17T19:44:15.954Z,17.30
2018-05-17T19:46:42.870Z,17.30
2018-05-17T19:49:09.825Z,17.20
2018-05-17T19:51:36.702Z,17.30
2018-05-17T19:54:03.569Z,17.20
2018-05-17T19:56:30.468Z,17.20
2018-05-17T19:58:57.773Z,17.10
2018-05-17T20:01:24.714Z,17.10
2018-05-17T20:03:51.569Z,17.20
2018-05-17T20:06:18.428Z,17.20
2018-05-17T20:08:45.306Z,17.00
2018-05-17T20:11:12.284Z,17.00
2018-05-17T20:13:39.225Z,17.00
2018-05-17T20:16:06.091Z,17.00
2018-05-17T20:18:33.076Z,16.90
2018-05-17T20:21:00.437Z,16.70
2018-05-17T20:23:27.319Z,16.70
2018-05-17T20:25:54.567Z,16.60
2018-05-17T20:28:21.477Z,16.60
2018-05-17T20:30:48.692Z,16.60
2018-05-17T20:33:15.617Z,16.60
2018-05-17T20:35:42.530Z,16.70
2018-05-17T20:38:09.847Z,16.50
2018-05-17T20:40:36.792Z,16.40
2018-05-17T20:43:03.659Z,16.30
2018-05-17T20:45:30.654Z,16.10
2018-05-17T20:47:58.291Z,16.20
2018-05-17T20:50:25.237Z,16.10
2018-05-17T20:52:52.096Z,16.20
2018-05-17T20:55:19.043Z,16.20
2018-05-17T20:57:45.824Z,16.30
2018-05-17T21:00:12.762Z,16.30
2018-05-17T21:02:39.654Z,16.20
2018-05-17T21:05:06.588Z,16.20
2018-05-17T21:07:33.461Z,16.20
2018-05-17T21:10:00.330Z,16.20
2018-05-17T21:12:27.263Z,16.10
2018-05-17T21:14:54.210Z,16.00
2018-05-17T21:17:21.106Z,15.90
2018-05-17T21:19:47.972Z,16.00
2018-05-17T21:22:14.808Z,16.20
2018-05-17T21:24:41.686Z,16.10
2018-05-17T21:27:08.624Z,16.00
2018-05-17T21:29:35.421Z,15.90
2018-05-17T21:32:02.323Z,15.80
2018-05-17T21:34:29.209Z,15.70
2018-05-17T21:36:56.084Z,15.70
2018-05-17T21:39:22.942Z,15.80
2018-05-17T21:41:49.855Z,15.80
2018-05-17T21:44:16.823Z,15.80
2018-05-17T21:46:43.683Z,15.70
2018-05-17T21:49:10.543Z,15.60
2018-05-17T21:51:37.469Z,15.60
2018-05-17T21:54:04.321Z,15.60
2018-05-17T21:56:31.195Z,15.60
2018-05-17T21:58:58.176Z,15.50
2018-05-17T22:01:25.075Z,15.50
2018-05-17T22:03:52.342Z,15.40
2018-05-17T22:06:19.658Z,15.30
2018-05-17T22:08:46.602Z,15.30
2018-05-17T22:11:13.559Z,15.30
2018-05-17T22:13:40.411Z,15.10
2018-05-17T22:16:07.275Z,15.10
2018-05-17T22:18:34.175Z,15.10
2018-05-17T22:21:01.113Z,15.10
2018-05-17T22:23:27.973Z,15.10
2018-05-17T22:25:54.923Z,15.10
2018-05-17T22:28:21.765Z,15.10
2018-05-17T22:30:48.742Z,15.10
2018-05-17T22:33:15.592Z,15.10
2018-05-17T22:35:42.458Z,15.10
2018-05-17T22:38:09.400Z,15.10
2018-05-17T22:40:36.583Z,15.00
2018-05-17T22:43:03.527Z,14.90
2018-05-17T22:45:30.405Z,15.00
2018-05-17T22:47:57.330Z,14.90
2018-05-17T22:50:24.303Z,14.80
2018-05-17T22:52:51.214Z,14.90
2018-05-17T22:55:18.526Z,14.70
2018-05-17T22:57:57.493Z,14.70
2018-05-17T23:00:24.358Z,14.60
2018-05-17T23:02:51.284Z,14.50
2018-05-17T23:05:18.144Z,14.40
2018-05-17T23:07:45.013Z,14.40
2018-05-17T23:10:11.954Z,14.30
2018-05-17T23:12:38.819Z,14.20
2018-05-17T23:15:05.688Z,14.20
2018-05-17T23:17:32.553Z,14.40
2018-05-17T23:19:59.521Z,14.40
2018-05-17T23:22:35.144Z,14.30
2018-05-17T23:25:02.019Z,14.30
2018-05-17T23:27:28.988Z,14.20
2018-05-17T23:29:55.847Z,14.20
2018-05-17T23:32:22.727Z,14.10
2018-05-17T23:34:49.562Z,14.20
2018-05-17T23:37:21.221Z,14.10
2018-05-17T23:39:48.173Z,14.10
2018-05-17T23:42:15.019Z,13.80
2018-05-17T23:44:41.886Z,13.90
2018-05-17T23:47:09.091Z,13.80
2018-05-17T23:49:36.252Z,13.80
2018-05-17T23:52:03.494Z,13.80
2018-05-17T23:54:30.449Z,13.70
2018-05-17T23:56:57.386Z,13.70
2018-05-17T23:59:24.264Z,13.70
